Time;durP1;ratioP1;P1;durP2;ratioP2;P2;SDS_P1;SDS_P2;PMS_P1;PMS_P2;Temp;Humidity;BMP_temperature;BMP_pressure;BME280_temperature;BME280_humidity;BME280_pressure;Samples;Min_cycle;Max_cycle;Signal;HPM_P1;HPM_P2
2024/01/22 00:01:44;;;;;;;6.63;2.85;;;8.20;99.90;;;;;;4999396;28;20026;-76
2024/01/22 00:04:10;;;;;;;6.72;2.92;;;8.30;99.90;;;;;;4999275;28;20546;-76
2024/01/22 00:06:37;;;;;;;5.90;2.63;;;8.30;99.90;;;;;;4983116;28;20037;-77
2024/01/22 00:09:03;;;;;;;5.82;2.60;;;8.30;99.90;;;;;;4999382;28;20034;-76
2024/01/22 00:11:29;;;;;;;5.82;2.88;;;8.40;99.90;;;;;;4999081;28;20471;-76
2024/01/22 00:13:56;;;;;;;6.13;2.58;;;8.40;99.90;;;;;;4999267;28;20570;-77
2024/01/22 00:16:22;;;;;;;7.85;2.40;;;8.40;99.90;;;;;;5016496;28;20053;-77
2024/01/22 00:18:48;;;;;;;5.30;2.70;;;8.40;99.90;;;;;;4982991;28;20038;-76
2024/01/22 00:21:14;;;;;;;5.95;2.78;;;8.40;99.90;;;;;;4999307;28;20088;-77
2024/01/22 00:23:40;;;;;;;4.70;2.40;;;8.50;99.90;;;;;;4982828;28;20466;-76
2024/01/22 00:26:05;;;;;;;5.00;2.55;;;8.50;99.90;;;;;;4998674;28;20030;-76
2024/01/22 00:28:31;;;;;;;6.53;2.78;;;8.60;99.90;;;;;;4998941;28;20525;-76
2024/01/22 00:30:56;;;;;;;6.05;3.00;;;8.60;99.90;;;;;;4998554;28;20454;-76
2024/01/22 00:33:22;;;;;;;7.13;2.25;;;8.60;99.90;;;;;;4999198;28;20030;-76
2024/01/22 00:35:48;;;;;;;7.43;2.70;;;8.60;99.90;;;;;;4982671;28;20038;-77
2024/01/22 00:38:13;;;;;;;5.07;2.70;;;8.70;99.90;;;;;;4982097;28;20037;-77
2024/01/22 00:40:39;;;;;;;4.32;2.28;;;8.70;99.90;;;;;;4998974;28;20061;-76
2024/01/22 00:43:04;;;;;;;5.22;2.45;;;8.70;99.90;;;;;;4982293;28;20116;-76
2024/01/22 00:45:30;;;;;;;6.50;2.60;;;8.70;99.90;;;;;;4998908;28;20038;-76
2024/01/22 00:47:56;;;;;;;6.80;2.67;;;8.70;99.90;;;;;;4982994;28;20513;-76
2024/01/22 00:50:21;;;;;;;7.97;2.90;;;8.70;99.90;;;;;;5016060;28;20057;-77
2024/01/22 00:52:47;;;;;;;5.82;2.10;;;8.70;99.90;;;;;;4998879;28;20076;-77
2024/01/22 00:55:13;;;;;;;8.60;2.97;;;8.80;99.90;;;;;;4998336;28;20443;-77
2024/01/22 00:57:39;;;;;;;6.50;2.83;;;8.80;99.90;;;;;;5015856;28;20076;-77
2024/01/22 01:00:06;;;;;;;6.07;2.40;;;8.80;99.90;;;;;;5015534;28;20034;-76
2024/01/22 01:02:31;;;;;;;7.85;2.10;;;8.80;99.90;;;;;;5015658;28;20034;-77
2024/01/22 01:04:57;;;;;;;5.75;2.30;;;8.80;99.90;;;;;;5015504;28;20455;-77
2024/01/22 01:07:23;;;;;;;4.18;2.17;;;8.90;99.90;;;;;;5015703;28;20038;-76
2024/01/22 01:09:49;;;;;;;4.95;2.60;;;8.90;99.90;;;;;;4982074;28;20088;-77
2024/01/22 01:12:15;;;;;;;6.22;2.35;;;9.00;99.90;;;;;;4965536;28;20077;-76
2024/01/22 01:14:40;;;;;;;10.02;2.35;;;9.00;99.90;;;;;;4981922;28;20478;-77
2024/01/22 01:17:06;;;;;;;7.07;2.22;;;9.00;99.90;;;;;;4998431;28;20431;-77
2024/01/22 01:19:31;;;;;;;5.22;2.00;;;9.10;99.90;;;;;;4965355;28;20449;-77
2024/01/22 01:21:57;;;;;;;5.07;2.00;;;9.10;99.90;;;;;;4997855;28;20040;-77
2024/01/22 01:24:23;;;;;;;4.63;2.20;;;9.10;99.90;;;;;;5015303;28;20084;-76
2024/01/22 01:26:48;;;;;;;7.13;2.45;;;9.10;99.90;;;;;;4981513;28;20092;-77
2024/01/22 01:29:14;;;;;;;4.25;1.83;;;9.20;99.90;;;;;;5015446;28;20045;-76
2024/01/22 01:31:40;;;;;;;5.20;1.73;;;9.20;99.90;;;;;;5015400;28;20109;-77
2024/01/22 01:34:06;;;;;;;8.30;2.00;;;9.20;99.90;;;;;;4997990;28;20434;-77
2024/01/22 01:36:32;;;;;;;3.60;1.58;;;9.20;99.90;;;;;;5015180;28;20109;-76
2024/01/22 01:38:57;;;;;;;3.95;1.92;;;9.30;99.90;;;;;;4997681;28;20132;-76
2024/01/22 01:41:23;;;;;;;5.10;2.55;;;9.30;99.90;;;;;;4997298;28;20057;-76
2024/01/22 01:43:48;;;;;;;6.78;2.10;;;9.30;99.90;;;;;;5014592;28;20034;-76
2024/01/22 01:46:14;;;;;;;3.45;1.50;;;9.30;99.90;;;;;;4997303;28;20109;-77
2024/01/22 01:48:41;;;;;;;4.65;1.85;;;9.40;99.90;;;;;;5014857;28;20068;-77
2024/01/22 01:51:08;;;;;;;4.28;1.58;;;9.40;99.90;;;;;;4998073;28;20382;-76
2024/01/22 01:53:34;;;;;;;8.43;1.90;;;9.40;99.90;;;;;;4997438;28;20473;-77
2024/01/22 01:56:01;;;;;;;5.88;2.28;;;9.40;99.90;;;;;;4997459;28;20022;-76
2024/01/22 01:58:27;;;;;;;5.63;2.00;;;9.40;99.90;;;;;;4997084;28;20029;-76
2024/01/22 02:00:57;;;;;;;6.32;1.65;;;9.40;99.90;;;;;;5014336;28;20030;-77
2024/01/22 02:03:23;;;;;;;4.90;1.48;;;9.40;99.90;;;;;;4996696;28;20022;-76
2024/01/22 02:05:49;;;;;;;4.45;1.60;;;9.40;99.90;;;;;;4997202;28;20034;-76
2024/01/22 02:08:14;;;;;;;3.83;1.35;;;9.50;99.90;;;;;;4980439;28;20049;-76
2024/01/22 02:10:40;;;;;;;4.03;1.50;;;9.50;99.90;;;;;;4996920;28;20030;-77
2024/01/22 02:13:09;;;;;;;3.60;1.35;;;9.40;99.90;;;;;;4996897;28;20032;-77
2024/01/22 02:15:34;;;;;;;5.18;1.60;;;9.50;99.90;;;;;;4980925;28;20054;-78
2024/01/22 02:18:01;;;;;;;3.13;1.50;;;9.50;99.90;;;;;;5014710;28;20441;-77
2024/01/22 02:20:27;;;;;;;6.03;1.83;;;9.50;99.90;;;;;;5014671;28;20030;-76
2024/01/22 02:22:52;;;;;;;3.53;1.60;;;9.50;99.90;;;;;;4997479;28;20038;-76
2024/01/22 02:25:18;;;;;;;2.33;1.20;;;9.50;99.90;;;;;;5014548;28;20387;-76
2024/01/22 02:27:44;;;;;;;5.13;1.35;;;9.50;99.90;;;;;;5014220;28;20065;-76
2024/01/22 02:30:10;;;;;;;3.55;1.50;;;9.50;99.90;;;;;;5014540;28;20528;-77
2024/01/22 02:32:36;;;;;;;4.47;1.60;;;9.60;99.90;;;;;;4980559;28;20387;-77
2024/01/22 02:35:02;;;;;;;5.40;1.98;;;9.60;99.90;;;;;;5013891;28;20030;-76
2024/01/22 02:37:27;;;;;;;4.20;1.42;;;9.60;99.90;;;;;;5013908;28;20489;-77
2024/01/22 02:39:53;;;;;;;3.95;1.17;;;9.70;99.90;;;;;;4980496;28;20033;-77
2024/01/22 02:42:19;;;;;;;2.10;1.00;;;9.70;99.90;;;;;;4996334;28;20038;-77
2024/01/22 02:44:45;;;;;;;3.88;1.17;;;9.70;99.90;;;;;;5014107;28;20061;-77
2024/01/22 02:47:11;;;;;;;2.13;1.17;;;9.80;99.90;;;;;;4996564;28;20473;-76
2024/01/22 02:49:37;;;;;;;4.30;1.50;;;9.80;99.90;;;;;;4996465;28;20030;-76
2024/01/22 02:52:03;;;;;;;2.53;1.02;;;9.80;99.90;;;;;;4996375;28;20462;-76
2024/01/22 02:54:29;;;;;;;3.45;0.98;;;9.80;99.90;;;;;;4996464;28;20470;-76
2024/01/22 02:56:54;;;;;;;2.63;1.00;;;9.80;99.90;;;;;;4996425;28;20061;-76
2024/01/22 02:59:20;;;;;;;3.63;1.27;;;9.80;99.90;;;;;;5013778;28;20034;-76
2024/01/22 03:01:46;;;;;;;4.00;1.20;;;9.80;99.90;;;;;;4996591;28;20026;-77
2024/01/22 03:04:11;;;;;;;3.25;1.13;;;9.70;99.90;;;;;;4996133;28;20034;-76
2024/01/22 03:06:38;;;;;;;3.28;1.52;;;9.70;99.90;;;;;;4996485;28;20033;-77
2024/01/22 03:09:04;;;;;;;4.57;1.40;;;9.70;99.90;;;;;;4980658;28;20042;-77
2024/01/22 03:11:30;;;;;;;4.20;1.67;;;9.60;99.90;;;;;;4996290;28;20033;-78
2024/01/22 03:13:55;;;;;;;3.15;1.13;;;9.60;99.90;;;;;;5013699;28;20507;-78
2024/01/22 03:16:21;;;;;;;2.42;1.40;;;9.60;99.90;;;;;;5013063;28;20129;-77
2024/01/22 03:18:47;;;;;;;2.58;1.27;;;9.60;99.90;;;;;;4980112;28;20042;-77
2024/01/22 03:21:12;;;;;;;4.45;1.10;;;9.60;99.90;;;;;;4995856;28;20387;-78
2024/01/22 03:23:40;;;;;;;2.88;1.15;;;9.60;99.90;;;;;;4979836;28;20034;-76
2024/01/22 03:26:05;;;;;;;2.65;1.25;;;9.60;99.90;;;;;;5013335;28;20030;-76
2024/01/22 03:28:31;;;;;;;2.60;1.02;;;9.60;99.90;;;;;;4963686;28;20120;-76
2024/01/22 03:30:57;;;;;;;5.28;1.13;;;9.60;99.90;;;;;;4995612;28;20104;-76
2024/01/22 03:33:23;;;;;;;6.03;1.60;;;9.60;99.90;;;;;;4995895;28;20030;-77
2024/01/22 03:35:48;;;;;;;3.58;1.20;;;9.70;99.90;;;;;;4996076;28;20037;-77
2024/01/22 03:38:14;;;;;;;5.20;1.10;;;9.70;99.90;;;;;;4996750;28;20029;-76
2024/01/22 03:40:40;;;;;;;4.93;1.10;;;9.60;99.90;;;;;;4995760;28;20113;-77
2024/01/22 03:43:05;;;;;;;2.53;0.90;;;9.70;99.90;;;;;;4995679;28;20480;-76
2024/01/22 03:45:31;;;;;;;2.42;0.95;;;9.70;99.90;;;;;;4995949;28;20033;-76
2024/01/22 03:47:57;;;;;;;1.13;0.82;;;9.80;99.90;;;;;;4995760;28;20066;-77
2024/01/22 03:50:22;;;;;;;2.10;1.05;;;9.80;99.90;;;;;;5013099;28;20475;-76
2024/01/22 03:52:48;;;;;;;3.38;1.08;;;9.80;99.90;;;;;;4996298;28;20137;-77
2024/01/22 03:55:14;;;;;;;4.22;1.35;;;9.80;99.90;;;;;;5013306;28;20026;-77
2024/01/22 03:57:39;;;;;;;2.22;0.90;;;9.80;99.90;;;;;;4995907;28;20498;-77
2024/01/22 04:00:05;;;;;;;6.07;1.85;;;9.80;99.90;;;;;;5014046;28;20374;-76
2024/01/22 04:02:34;;;;;;;3.80;1.23;;;9.80;99.90;;;;;;5014092;28;20057;-76
2024/01/22 04:05:00;;;;;;;3.75;1.30;;;9.70;99.90;;;;;;4995661;28;20061;-78
2024/01/22 04:07:26;;;;;;;3.47;1.20;;;9.70;99.90;;;;;;5015515;28;20470;-77
2024/01/22 04:09:52;;;;;;;1.88;1.02;;;9.70;99.90;;;;;;5016558;28;20117;-77
2024/01/22 04:12:17;;;;;;;3.63;1.35;;;9.70;99.90;;;;;;5016898;28;20382;-77
2024/01/22 04:14:43;;;;;;;2.22;1.00;;;9.70;99.90;;;;;;4983185;28;20177;-77
2024/01/22 04:17:10;;;;;;;4.47;1.20;;;9.70;99.90;;;;;;5016852;28;20089;-77
2024/01/22 04:19:35;;;;;;;2.53;1.05;;;9.60;99.90;;;;;;4983088;28;20038;-77
2024/01/22 04:22:03;;;;;;;2.45;0.82;;;9.60;99.90;;;;;;4999568;28;20520;-76
2024/01/22 04:24:28;;;;;;;2.88;1.25;;;9.60;99.90;;;;;;5016888;28;20037;-76
2024/01/22 04:26:54;;;;;;;2.92;0.77;;;9.60;99.90;;;;;;5016023;28;20034;-77
2024/01/22 04:29:20;;;;;;;2.70;1.05;;;9.60;99.90;;;;;;5016098;28;20532;-77
2024/01/22 04:31:46;;;;;;;3.33;1.23;;;9.70;99.90;;;;;;4982303;28;20034;-76
2024/01/22 04:34:11;;;;;;;5.03;1.13;;;9.70;99.90;;;;;;5016370;28;20026;-77
2024/01/22 04:36:37;;;;;;;2.17;0.90;;;9.70;99.90;;;;;;4998893;28;20377;-76
2024/01/22 04:39:03;;;;;;;2.22;0.80;;;9.70;99.90;;;;;;4998125;28;20034;-78
2024/01/22 04:41:28;;;;;;;3.45;0.90;;;9.70;99.90;;;;;;4982175;28;20069;-76
2024/01/22 04:43:54;;;;;;;2.17;0.80;;;9.70;99.90;;;;;;5015961;28;20030;-76
2024/01/22 04:46:20;;;;;;;2.00;0.60;;;9.80;99.90;;;;;;4966034;28;20026;-76
2024/01/22 04:48:45;;;;;;;1.45;0.70;;;9.80;99.90;;;;;;5015880;28;20084;-77
2024/01/22 04:51:11;;;;;;;2.80;0.80;;;9.80;99.90;;;;;;4982547;28;20034;-76
2024/01/22 04:53:37;;;;;;;1.65;0.90;;;9.80;99.90;;;;;;5016157;28;20120;-76
2024/01/22 04:56:02;;;;;;;1.33;0.70;;;9.90;99.90;;;;;;4982059;28;20135;-76
2024/01/22 04:58:28;;;;;;;1.60;0.85;;;9.90;99.90;;;;;;5016081;28;20038;-76
2024/01/22 05:00:54;;;;;;;1.80;0.70;;;10.00;99.90;;;;;;5015475;28;20030;-77
2024/01/22 05:03:19;;;;;;;1.92;0.55;;;10.00;99.90;;;;;;4998716;28;20026;-76
2024/01/22 05:05:45;;;;;;;1.73;0.70;;;10.00;99.90;;;;;;4998147;28;20034;-76
2024/01/22 05:08:11;;;;;;;1.60;0.82;;;10.00;99.90;;;;;;4997644;28;20038;-77
2024/01/22 05:10:37;;;;;;;1.60;0.90;;;10.10;99.90;;;;;;4998439;28;20038;-76
2024/01/22 05:13:02;;;;;;;4.75;0.93;;;10.10;99.90;;;;;;4997775;28;20467;-77
2024/01/22 05:15:28;;;;;;;5.95;1.00;;;10.10;99.90;;;;;;4997575;28;20037;-77
2024/01/22 05:17:54;;;;;;;2.00;0.60;;;10.10;99.90;;;;;;4996741;28;20446;-76
2024/01/22 05:20:19;;;;;;;1.48;0.90;;;10.10;99.90;;;;;;4981096;28;20387;-77
2024/01/22 05:22:45;;;;;;;2.00;0.50;;;10.10;99.90;;;;;;4997593;28;20069;-77
2024/01/22 05:25:11;;;;;;;2.65;0.63;;;10.20;99.90;;;;;;4981366;28;20113;-77
2024/01/22 05:27:37;;;;;;;2.90;0.80;;;10.20;99.90;;;;;;5015159;28;20025;-77
2024/01/22 05:30:04;;;;;;;2.42;0.60;;;10.20;99.90;;;;;;4981292;28;20050;-77
2024/01/22 05:32:32;;;;;;;3.30;0.60;;;10.20;99.90;;;;;;4998096;28;20036;-77
2024/01/22 05:34:57;;;;;;;3.05;0.68;;;10.30;99.90;;;;;;4997445;28;20045;-77
2024/01/22 05:37:23;;;;;;;1.42;0.57;;;10.30;99.90;;;;;;5014858;28;20476;-78
2024/01/22 05:39:49;;;;;;;2.55;0.40;;;10.30;99.90;;;;;;4997015;28;20034;-77
2024/01/22 05:42:14;;;;;;;3.22;0.50;;;10.30;99.90;;;;;;4997736;28;20040;-76
2024/01/22 05:44:40;;;;;;;5.10;0.40;;;10.30;99.90;;;;;;5014583;28;20037;-78
2024/01/22 05:47:06;;;;;;;1.13;0.40;;;10.40;99.90;;;;;;5014959;28;20126;-78
2024/01/22 05:49:31;;;;;;;1.42;0.50;;;10.50;99.90;;;;;;4997333;28;20061;-77
2024/01/22 05:51:58;;;;;;;3.60;0.70;;;10.50;99.90;;;;;;4997266;28;20034;-77
2024/01/22 05:54:24;;;;;;;3.22;0.70;;;10.50;99.90;;;;;;5015342;28;20081;-77
2024/01/22 05:56:52;;;;;;;2.85;0.40;;;10.50;99.90;;;;;;4981361;28;20065;-76
2024/01/22 05:59:19;;;;;;;7.03;0.40;;;10.60;99.90;;;;;;4998213;28;20044;-77
2024/01/22 06:01:45;;;;;;;1.52;0.30;;;10.60;99.90;;;;;;4997581;28;20088;-77
2024/01/22 06:04:11;;;;;;;1.70;0.47;;;10.70;99.90;;;;;;4964728;28;20467;-77
2024/01/22 06:06:37;;;;;;;1.52;0.20;;;10.70;99.90;;;;;;4997079;28;20113;-78
2024/01/22 06:09:02;;;;;;;1.63;0.40;;;10.80;99.90;;;;;;4981186;28;20038;-77
2024/01/22 06:11:30;;;;;;;2.58;0.30;;;10.80;99.90;;;;;;4997047;28;20037;-77
2024/01/22 06:13:56;;;;;;;2.15;0.30;;;10.90;99.90;;;;;;4997147;28;20037;-77
2024/01/22 06:16:21;;;;;;;1.42;0.20;;;10.90;99.90;;;;;;4964159;28;20058;-80
2024/01/22 06:18:48;;;;;;;3.63;0.20;;;11.00;99.90;;;;;;4997266;28;20424;-79
2024/01/22 06:21:14;;;;;;;3.05;0.50;;;11.10;99.90;;;;;;4996644;28;20068;-78
2024/01/22 06:23:41;;;;;;;4.35;0.30;;;11.10;99.90;;;;;;4996568;28;20026;-77
2024/01/22 06:26:08;;;;;;;2.60;0.25;;;11.20;99.90;;;;;;5014531;28;20026;-77
2024/01/22 06:28:34;;;;;;;4.45;0.30;;;11.30;99.90;;;;;;4996304;28;20485;-78
2024/01/22 06:30:59;;;;;;;3.15;0.20;;;11.30;99.90;;;;;;4996557;28;20079;-78
2024/01/22 06:33:25;;;;;;;3.72;0.65;;;11.30;99.90;;;;;;5014100;28;20034;-77
2024/01/22 06:35:51;;;;;;;5.97;0.40;;;11.40;99.90;;;;;;4980436;28;20034;-77
2024/01/22 06:38:17;;;;;;;3.72;0.25;;;11.40;99.90;;;;;;5013605;28;20045;-79
2024/01/22 06:40:44;;;;;;;3.17;0.30;;;11.50;99.90;;;;;;5014030;28;20033;-78
2024/01/22 06:43:10;;;;;;;3.08;0.20;;;11.50;99.90;;;;;;4980356;28;20026;-77
2024/01/22 06:45:36;;;;;;;2.15;0.20;;;11.50;99.90;;;;;;4996820;28;20442;-75
2024/01/22 06:48:02;;;;;;;1.75;0.20;;;11.40;99.90;;;;;;5013711;28;20040;-78
2024/01/22 06:50:28;;;;;;;4.72;0.50;;;11.50;99.90;;;;;;4964399;28;20129;-78
2024/01/22 06:52:54;;;;;;;4.70;0.43;;;11.50;99.90;;;;;;5013703;28;20117;-81
2024/01/22 06:55:20;;;;;;;2.55;0.50;;;11.40;99.90;;;;;;4980114;28;20129;-80
2024/01/22 06:57:46;;;;;;;3.25;0.38;;;11.40;99.90;;;;;;4996523;28;20424;-78
2024/01/22 07:00:15;;;;;;;2.65;0.30;;;11.40;99.90;;;;;;5013484;28;20087;-78
2024/01/22 07:02:43;;;;;;;3.80;0.22;;;11.40;99.90;;;;;;5013849;28;20470;-77
2024/01/22 07:05:12;;;;;;;2.17;0.20;;;11.40;99.90;;;;;;5014028;28;20034;-79
2024/01/22 07:07:39;;;;;;;3.20;0.63;;;11.40;99.90;;;;;;4996114;28;20030;-78
2024/01/22 07:10:05;;;;;;;4.78;0.40;;;11.40;99.90;;;;;;4996315;28;20045;-78
2024/01/22 07:12:32;;;;;;;4.00;0.40;;;11.40;99.90;;;;;;5014176;28;20038;-78
2024/01/22 07:14:57;;;;;;;4.22;0.40;;;11.40;99.90;;;;;;4995987;28;20092;-78
2024/01/22 07:17:23;;;;;;;5.00;0.50;;;11.40;99.90;;;;;;4995746;28;20509;-78
2024/01/22 07:19:49;;;;;;;4.65;0.50;;;11.40;99.90;;;;;;4996096;28;20034;-76
2024/01/22 07:22:14;;;;;;;4.07;0.40;;;11.30;99.90;;;;;;4996728;28;20357;-77
2024/01/22 07:24:40;;;;;;;5.00;0.38;;;11.30;99.90;;;;;;5013659;28;20104;-76
2024/01/22 07:27:07;;;;;;;4.55;0.75;;;11.30;99.90;;;;;;4996018;28;20058;-75
2024/01/22 07:29:33;;;;;;;4.43;0.47;;;11.40;99.90;;;;;;4996373;28;20033;-76
2024/01/22 07:31:58;;;;;;;5.07;0.43;;;11.40;99.90;;;;;;5013525;28;20466;-76
2024/01/22 07:34:25;;;;;;;7.55;0.60;;;11.40;99.90;;;;;;4995925;28;20030;-74
2024/01/22 07:36:51;;;;;;;8.45;0.80;;;11.40;99.90;;;;;;4996294;28;20062;-79
2024/01/22 07:39:17;;;;;;;11.45;1.20;;;11.40;99.90;;;;;;5014173;28;20363;-76
2024/01/22 07:41:43;;;;;;;6.10;0.63;;;11.40;99.90;;;;;;4982203;28;20037;-76
2024/01/22 07:44:09;;;;;;;6.40;1.05;;;11.50;99.90;;;;;;5017237;28;20454;-75
2024/01/22 07:46:35;;;;;;;10.25;1.40;;;11.50;99.90;;;;;;5016698;28;20034;-76
2024/01/22 07:49:00;;;;;;;9.20;1.02;;;11.50;99.90;;;;;;4999314;28;20048;-76
2024/01/22 07:51:26;;;;;;;6.63;0.98;;;11.50;99.90;;;;;;4999023;28;20030;-75
2024/01/22 07:53:52;;;;;;;8.75;1.00;;;11.50;99.90;;;;;;5017074;28;20030;-75
2024/01/22 07:56:17;;;;;;;5.68;0.50;;;11.60;99.90;;;;;;5017314;28;20030;-74
2024/01/22 07:58:44;;;;;;;8.02;1.02;;;11.60;99.90;;;;;;4999265;28;20029;-79
2024/01/22 08:01:09;;;;;;;6.57;0.60;;;11.60;99.90;;;;;;4999091;28;20030;-75
2024/01/22 08:03:35;;;;;;;10.98;0.98;;;11.60;99.90;;;;;;5016347;28;20029;-74
2024/01/22 08:06:01;;;;;;;6.88;0.75;;;11.60;99.90;;;;;;5016897;28;20026;-74
2024/01/22 08:08:29;;;;;;;7.70;0.85;;;11.60;99.90;;;;;;5016117;28;20109;-75
2024/01/22 08:10:56;;;;;;;8.05;0.60;;;11.60;99.90;;;;;;4999254;28;20041;-77
2024/01/22 08:13:22;;;;;;;8.13;1.13;;;11.60;99.90;;;;;;5016943;28;20040;-77
2024/01/22 08:15:48;;;;;;;10.73;1.25;;;11.60;99.90;;;;;;4983527;28;20030;-77
2024/01/22 08:18:14;;;;;;;8.75;1.20;;;11.60;99.90;;;;;;5018650;28;20033;-77
2024/01/22 08:20:41;;;;;;;10.48;1.15;;;11.60;99.90;;;;;;5016980;28;20034;-77
2024/01/22 08:23:07;;;;;;;11.63;0.95;;;11.60;99.90;;;;;;4999383;28;20096;-77
2024/01/22 08:25:33;;;;;;;10.88;1.30;;;11.60;99.90;;;;;;5001444;28;20455;-74
2024/01/22 08:27:59;;;;;;;9.43;1.20;;;11.50;99.90;;;;;;4998180;28;20034;-74
2024/01/22 08:30:26;;;;;;;8.35;1.25;;;11.50;99.90;;;;;;5015899;28;20065;-74
2024/01/22 08:32:52;;;;;;;11.35;1.45;;;11.50;99.90;;;;;;5016279;28;20018;-74
2024/01/22 08:35:19;;;;;;;11.75;1.17;;;11.50;99.90;;;;;;5016137;28;20351;-74
2024/01/22 08:37:54;;;;;;;12.70;1.35;;;11.50;99.90;;;;;;4982837;28;20509;-74
2024/01/22 08:40:24;;;;;;;6.00;1.15;;;11.50;99.90;;;;;;5015717;28;20026;-75
2024/01/22 08:42:51;;;;;;;10.98;1.58;;;11.40;99.90;;;;;;5015697;28;20117;-76
2024/01/22 08:45:17;;;;;;;13.32;1.23;;;11.40;99.90;;;;;;5015940;28;20117;-77
2024/01/22 08:47:46;;;;;;;12.05;1.10;;;11.40;99.90;;;;;;5015793;28;20076;-76
2024/01/22 08:50:17;;;;;;;9.05;1.75;;;11.40;99.90;;;;;;5016312;28;20517;-76
2024/01/22 08:52:44;;;;;;;8.75;1.33;;;11.40;99.90;;;;;;5016091;28;20034;-75
2024/01/22 08:55:09;;;;;;;16.35;2.47;;;11.40;99.90;;;;;;5015783;28;20084;-77
2024/01/22 08:57:36;;;;;;;7.18;1.13;;;11.40;99.90;;;;;;5015714;28;20417;-75
2024/01/22 09:00:06;;;;;;;9.57;1.35;;;11.40;99.90;;;;;;4998244;28;20474;-74
2024/01/22 09:02:31;;;;;;;10.75;1.25;;;11.40;99.90;;;;;;4998669;28;20065;-74
2024/01/22 09:04:57;;;;;;;12.52;1.63;;;11.40;99.90;;;;;;5015567;28;20061;-74
2024/01/22 09:07:23;;;;;;;12.02;1.70;;;11.40;99.90;;;;;;4997783;28;20112;-74
2024/01/22 09:09:50;;;;;;;17.48;2.60;;;11.50;99.90;;;;;;5015246;28;20467;-74
2024/01/22 09:12:18;;;;;;;9.43;2.13;;;11.40;99.90;;;;;;5015243;28;20034;-76
2024/01/22 09:14:44;;;;;;;11.73;1.80;;;11.40;99.90;;;;;;5016051;28;20029;-75
2024/01/22 09:17:09;;;;;;;16.63;2.25;;;11.40;99.90;;;;;;4981348;28;20072;-73
2024/01/22 09:19:35;;;;;;;13.60;2.25;;;11.40;99.90;;;;;;5015418;28;20042;-74
2024/01/22 09:22:01;;;;;;;22.83;3.03;;;11.40;99.90;;;;;;5015054;28;20034;-73
2024/01/22 09:24:26;;;;;;;13.52;2.10;;;11.40;99.90;;;;;;4997922;28;20116;-75
2024/01/22 09:26:52;;;;;;;15.80;1.95;;;11.40;99.90;;;;;;4997643;28;20036;-75
2024/01/22 09:29:18;;;;;;;14.05;2.10;;;11.40;99.90;;;;;;5015015;28;20447;-75
2024/01/22 09:31:43;;;;;;;16.73;2.63;;;11.40;99.90;;;;;;5014871;28;20042;-76
2024/01/22 09:34:10;;;;;;;15.63;2.17;;;11.40;99.90;;;;;;5014900;28;20026;-77
2024/01/22 09:36:36;;;;;;;9.23;1.65;;;11.50;99.90;;;;;;5015327;28;20033;-77
2024/01/22 09:39:02;;;;;;;12.35;2.05;;;11.50;99.90;;;;;;4981472;28;20038;-78
2024/01/22 09:41:29;;;;;;;15.52;1.95;;;11.40;99.90;;;;;;5018376;28;20034;-80
2024/01/22 09:43:55;;;;;;;10.93;1.65;;;11.40;99.90;;;;;;5002296;28;20030;-77
2024/01/22 09:46:22;;;;;;;15.38;1.92;;;11.30;99.90;;;;;;5015087;28;20142;-78
2024/01/22 09:48:53;;;;;;;11.43;1.42;;;11.30;99.90;;;;;;5014677;28;20022;-77
2024/01/22 09:51:18;;;;;;;14.13;1.60;;;11.20;99.90;;;;;;5016870;28;20422;-77
2024/01/22 09:53:47;;;;;;;9.57;1.25;;;11.00;99.90;;;;;;5003371;28;20053;-80
2024/01/22 09:56:16;;;;;;;12.80;1.75;;;11.00;99.90;;;;;;5015617;28;20025;-74
2024/01/22 09:58:44;;;;;;;12.77;1.88;;;10.80;99.90;;;;;;4997170;28;20041;-74
2024/01/22 10:01:10;;;;;;;10.90;1.60;;;10.80;99.90;;;;;;5014922;28;20034;-76
2024/01/22 10:03:37;;;;;;;17.58;1.77;;;10.70;99.90;;;;;;4996564;28;20058;-75
2024/01/22 10:06:04;;;;;;;9.70;1.50;;;10.70;99.90;;;;;;4996878;28;20383;-75
2024/01/22 10:08:30;;;;;;;15.20;1.95;;;10.70;99.90;;;;;;4998866;28;20045;-75
2024/01/22 10:10:55;;;;;;;16.48;1.88;;;10.60;99.90;;;;;;5026734;28;20118;-80
2024/01/22 10:13:21;;;;;;;9.57;1.48;;;10.60;99.90;;;;;;4999574;28;20041;-80
2024/01/22 10:15:47;;;;;;;16.65;1.98;;;10.60;99.90;;;;;;4988188;28;20052;-80
2024/01/22 10:18:14;;;;;;;13.77;1.55;;;10.60;99.90;;;;;;5005041;28;20030;-74
2024/01/22 10:20:42;;;;;;;13.73;1.50;;;10.60;99.90;;;;;;5023016;28;20030;-78
2024/01/22 10:23:09;;;;;;;11.82;1.40;;;10.60;99.90;;;;;;5023869;28;20038;-78
2024/01/22 10:25:35;;;;;;;11.80;1.88;;;10.60;99.90;;;;;;5019993;28;20096;-79
2024/01/22 10:28:16;;;;;;;14.00;1.77;;;10.50;99.90;;;;;;4991660;28;20030;-79
2024/01/22 10:30:44;;;;;;;11.57;2.40;;;10.50;99.90;;;;;;5030537;28;20081;-79
2024/01/22 10:33:17;;;;;;;11.57;1.58;;;10.50;99.90;;;;;;5020731;28;20039;-75
2024/01/22 10:35:44;;;;;;;14.40;1.60;;;10.50;99.90;;;;;;4997425;28;20030;-75
2024/01/22 10:38:12;;;;;;;15.05;1.83;;;10.50;99.90;;;;;;5015980;28;20120;-77
2024/01/22 10:40:38;;;;;;;13.98;1.50;;;10.50;99.90;;;;;;5027820;28;20037;-77
2024/01/22 10:43:24;;;;;;;11.85;1.60;;;10.50;99.90;;;;;;5027919;28;20048;-77
2024/01/22 10:45:50;;;;;;;14.68;2.10;;;10.50;99.90;;;;;;5008828;28;20030;-80
2024/01/22 10:48:18;;;;;;;15.57;2.78;;;10.50;99.90;;;;;;5022445;28;20033;-79
2024/01/22 10:50:44;;;;;;;19.95;2.35;;;10.50;99.90;;;;;;5022771;28;20056;-79
2024/01/22 10:53:11;;;;;;;11.80;1.42;;;10.50;99.90;;;;;;5004606;28;20065;-78
2024/01/22 10:55:40;;;;;;;15.48;1.80;;;10.50;99.90;;;;;;5024764;28;20022;-78
2024/01/22 10:58:24;;;;;;;14.82;2.25;;;10.50;99.90;;;;;;5027100;28;20049;-78
2024/01/22 11:00:51;;;;;;;19.90;2.30;;;10.50;99.90;;;;;;5017607;28;20101;-80
2024/01/22 11:03:19;;;;;;;17.23;2.60;;;10.40;99.90;;;;;;5016343;28;20097;-80
2024/01/22 11:05:51;;;;;;;14.77;1.80;;;10.40;99.90;;;;;;5016145;28;20034;-79
2024/01/22 11:08:19;;;;;;;22.25;3.03;;;10.40;99.90;;;;;;5015136;28;20041;-80
2024/01/22 11:10:46;;;;;;;20.35;2.78;;;10.40;99.90;;;;;;4982088;28;20042;-82
2024/01/22 11:13:15;;;;;;;21.40;3.97;;;10.40;99.90;;;;;;5017798;28;20029;-79
2024/01/22 11:15:42;;;;;;;29.60;4.13;;;10.40;99.90;;;;;;4997165;28;20309;-80
2024/01/22 11:18:10;;;;;;;23.80;2.75;;;10.40;99.90;;;;;;5020208;28;20030;-80
2024/01/22 11:20:37;;;;;;;23.30;3.05;;;10.40;99.90;;;;;;4990039;28;20034;-81
2024/01/22 11:23:12;;;;;;;23.77;3.33;;;10.40;99.90;;;;;;5008124;28;20061;-80
2024/01/22 11:25:38;;;;;;;23.88;3.10;;;10.40;99.90;;;;;;5027150;28;20021;-79
2024/01/22 11:28:12;;;;;;;24.38;3.78;;;10.50;99.90;;;;;;5026353;28;20197;-78
2024/01/22 11:30:42;;;;;;;21.75;3.55;;;10.50;99.90;;;;;;5021230;28;20065;-80
2024/01/22 11:33:23;;;;;;;25.75;3.03;;;10.50;99.90;;;;;;5020360;28;20030;-76
2024/01/22 11:35:49;;;;;;;28.70;3.45;;;10.50;99.90;;;;;;5018737;28;20077;-76
2024/01/22 11:38:40;;;;;;;31.15;4.18;;;10.50;99.90;;;;;;5017567;28;20510;-76
2024/01/22 11:41:06;;;;;;;31.15;4.05;;;10.50;99.90;;;;;;5003099;28;20111;-75
2024/01/22 11:43:31;;;;;;;47.00;5.63;;;10.50;99.90;;;;;;4999945;28;20070;-76
2024/01/22 11:45:57;;;;;;;30.42;3.92;;;10.60;99.90;;;;;;4999114;28;20058;-76
2024/01/22 11:48:24;;;;;;;22.30;3.70;;;10.70;99.90;;;;;;5017422;28;20474;-76
2024/01/22 11:51:06;;;;;;;33.85;5.03;;;10.70;99.90;;;;;;5017080;28;20040;-76
2024/01/22 11:53:32;;;;;;;27.77;3.83;;;10.80;99.90;;;;;;5017105;28;20026;-75
2024/01/22 11:56:03;;;;;;;29.98;4.72;;;10.80;99.90;;;;;;4999346;28;20128;-75
2024/01/22 11:58:33;;;;;;;31.30;4.13;;;10.90;99.90;;;;;;5017090;28;20040;-76
2024/01/22 12:01:06;;;;;;;30.27;4.00;;;11.00;99.90;;;;;;5016541;28;20471;-75
2024/01/22 12:03:32;;;;;;;33.92;4.30;;;11.00;99.90;;;;;;5016886;28;20083;-75
2024/01/22 12:06:04;;;;;;;29.10;4.03;;;11.10;99.90;;;;;;4999199;28;20418;-75
2024/01/22 12:08:34;;;;;;;31.95;4.03;;;11.10;99.90;;;;;;5017988;28;20050;-77
2024/01/22 12:11:06;;;;;;;30.95;4.13;;;11.20;99.90;;;;;;5022434;28;20037;-79
2024/01/22 12:13:32;;;;;;;32.72;5.57;;;11.20;99.90;;;;;;5001854;28;20026;-75
2024/01/22 12:15:57;;;;;;;24.45;3.70;;;11.20;99.90;;;;;;5016625;28;20070;-75
2024/01/22 12:18:24;;;;;;;28.77;3.70;;;11.20;99.90;;;;;;4999853;28;20418;-75
2024/01/22 12:20:50;;;;;;;30.60;4.25;;;11.30;99.90;;;;;;4999157;28;20046;-74
2024/01/22 12:23:36;;;;;;;29.25;3.75;;;11.30;99.90;;;;;;4998839;28;20092;-75
2024/01/22 12:26:02;;;;;;;31.67;3.90;;;11.30;99.90;;;;;;5016858;28;20052;-76
2024/01/22 12:28:28;;;;;;;29.60;3.85;;;11.30;99.90;;;;;;5016083;28;20038;-77
2024/01/22 12:31:01;;;;;;;30.30;4.88;;;11.30;99.90;;;;;;4998835;28;20467;-77
2024/01/22 12:33:29;;;;;;;25.10;4.25;;;11.30;99.90;;;;;;5016433;28;20030;-76
2024/01/22 12:36:14;;;;;;;23.35;3.92;;;11.30;99.90;;;;;;5016581;28;20481;-77
2024/01/22 12:38:51;;;;;;;28.65;5.07;;;11.20;99.90;;;;;;5016718;28;20537;-75
2024/01/22 12:41:18;;;;;;;36.05;4.45;;;11.20;99.90;;;;;;5016751;28;20075;-77
2024/01/22 12:43:45;;;;;;;30.40;4.63;;;11.10;99.90;;;;;;5016231;28;20025;-76
2024/01/22 12:46:14;;;;;;;26.00;4.22;;;11.10;99.90;;;;;;4999506;28;20026;-76